Time,TemperatureF,DewpointF,PressureIn,WindDirection,WindDirectionDegrees,WindSpeedMPH,WindSpeedGustMPH,Humidity,HourlyPrecipIn,Conditions,Clouds,dailyrainin,SolarRadiationWatts/m^2,SoftwareType,DateUTC
2013-05-04 00:22:00,54.0,53.0,-100.00,ENE,58,2.0,4.0,98,0.00,,,0.00,0.000000,,2013-05-04 10:22:00,
2013-05-04 00:33:00,54.0,53.0,-100.00,ENE,58,2.0,4.0,98,0.00,,,0.00,0.000000,,2013-05-04 10:33:00,
2013-05-04 00:42:00,54.0,53.0,-100.00,ENE,58,2.0,4.0,98,0.00,,,0.00,0.000000,,2013-05-04 10:42:00,
2013-05-04 00:52:00,54.0,53.0,-100.00,ENE,58,2.0,4.0,98,0.00,,,0.00,0.000000,,2013-05-04 10:52:00,
2013-05-04 01:21:00,56.0,55.0,-100.00,South,185,1.0,4.0,98,0.00,,,0.00,0.000000,,2013-05-04 11:21:00,
2013-05-04 01:32:00,56.0,55.0,-100.00,South,185,1.0,4.0,98,0.00,,,0.00,0.000000,,2013-05-04 11:32:00,
2013-05-04 01:42:00,56.0,55.0,-100.00,South,185,1.0,4.0,98,0.00,,,0.00,0.000000,,2013-05-04 11:42:00,
2013-05-04 01:53:00,56.0,55.0,-100.00,South,185,1.0,4.0,98,0.00,,,0.00,0.000000,,2013-05-04 11:53:00,
2013-05-04 02:26:00,54.0,54.0,-100.00,NW,309,1.0,5.0,99,0.00,,,-99.99,0.000000,,2013-05-04 12:26:00,
2013-05-04 02:41:00,54.0,54.0,-100.00,NW,309,1.0,5.0,99,0.00,,,-99.99,0.000000,,2013-05-04 12:41:00,
2013-05-04 02:51:00,54.0,54.0,-100.00,NW,309,1.0,5.0,99,0.00,,,-99.99,0.000000,,2013-05-04 12:51:00,
2013-05-04 03:21:00,50.0,49.0,-100.00,ESE,118,4.0,7.0,97,0.00,,,0.00,0.000000,,2013-05-04 13:21:00,
2013-05-04 03:32:00,50.0,49.0,-100.00,ESE,118,4.0,7.0,97,0.00,,,0.00,0.000000,,2013-05-04 13:32:00,
2013-05-04 03:41:00,50.0,49.0,-100.00,ESE,118,4.0,7.0,97,0.00,,,0.00,0.000000,,2013-05-04 13:41:00,
2013-05-04 03:52:00,50.0,49.0,-100.00,ESE,118,4.0,7.0,97,0.00,,,0.00,0.000000,,2013-05-04 13:52:00,
2013-05-04 04:21:00,51.0,50.0,-100.00,East,87,2.0,8.0,97,0.00,,,0.00,0.000000,,2013-05-04 14:21:00,
2013-05-04 04:32:00,51.0,50.0,-100.00,East,87,2.0,8.0,97,0.00,,,0.00,0.000000,,2013-05-04 14:32:00,
2013-05-04 04:41:00,51.0,50.0,-100.00,East,87,2.0,8.0,97,0.00,,,0.00,0.000000,,2013-05-04 14:41:00,
2013-05-04 04:51:00,51.0,50.0,-100.00,East,87,2.0,8.0,97,0.00,,,0.00,0.000000,,2013-05-04 14:51:00,
2013-05-04 05:21:00,51.0,51.0,-100.00,SE,134,4.0,5.0,99,0.00,,,0.00,0.000000,,2013-05-04 15:21:00,
2013-05-04 05:33:00,51.0,51.0,-100.00,SE,134,4.0,5.0,99,0.00,,,0.00,0.000000,,2013-05-04 15:33:00,
2013-05-04 05:43:00,51.0,51.0,-100.00,SE,134,4.0,5.0,99,0.00,,,0.00,0.000000,,2013-05-04 15:43:00,
2013-05-04 05:52:00,51.0,51.0,-100.00,SE,134,4.0,5.0,99,0.00,,,0.00,0.000000,,2013-05-04 15:52:00,
2013-05-04 06:22:00,52.0,51.0,-100.00,South,172,4.0,6.0,98,0.00,,,0.00,0.000000,,2013-05-04 16:22:00,
2013-05-04 06:33:00,52.0,51.0,-100.00,South,172,4.0,6.0,98,0.00,,,0.00,0.000000,,2013-05-04 16:33:00,
2013-05-04 06:42:00,52.0,51.0,-100.00,South,172,4.0,6.0,98,0.00,,,0.00,0.000000,,2013-05-04 16:42:00,
2013-05-04 06:52:00,52.0,51.0,-100.00,South,172,4.0,6.0,98,0.00,,,0.00,0.000000,,2013-05-04 16:52:00,
2013-05-04 07:22:00,58.0,55.0,-100.00,SSE,160,4.0,8.0,89,0.00,,,0.00,50.000000,,2013-05-04 17:22:00,
2013-05-04 07:32:00,58.0,55.0,-100.00,SSE,160,4.0,8.0,89,0.00,,,0.00,50.000000,,2013-05-04 17:32:00,
2013-05-04 07:42:00,58.0,55.0,-100.00,SSE,160,4.0,8.0,89,0.00,,,0.00,50.000000,,2013-05-04 17:42:00,
2013-05-04 07:52:00,58.0,55.0,-100.00,SSE,160,4.0,8.0,89,0.00,,,0.00,50.000000,,2013-05-04 17:52:00,
2013-05-04 08:21:00,65.0,54.0,-100.00,South,186,2.0,8.0,67,0.00,,,0.00,318.000000,,2013-05-04 18:21:00,
2013-05-04 08:32:00,65.0,54.0,-100.00,South,186,2.0,8.0,67,0.00,,,0.00,318.000000,,2013-05-04 18:32:00,
2013-05-04 08:42:00,65.0,54.0,-100.00,South,186,2.0,8.0,67,0.00,,,0.00,318.000000,,2013-05-04 18:42:00,
2013-05-04 08:52:00,65.0,54.0,-100.00,South,186,2.0,8.0,67,0.00,,,0.00,318.000000,,2013-05-04 18:52:00,
2013-05-04 09:21:00,63.0,53.0,-100.00,North,350,7.0,12.0,70,0.00,,,0.00,524.000000,,2013-05-04 19:21:00,
2013-05-04 09:31:00,63.0,53.0,-100.00,North,350,7.0,12.0,70,0.00,,,0.00,524.000000,,2013-05-04 19:31:00,
2013-05-04 09:42:00,63.0,53.0,-100.00,North,350,7.0,12.0,70,0.00,,,0.00,524.000000,,2013-05-04 19:42:00,
2013-05-04 09:52:00,63.0,53.0,-100.00,North,350,7.0,12.0,70,0.00,,,0.00,524.000000,,2013-05-04 19:52:00,
2013-05-04 10:21:00,67.0,55.0,-100.00,North,0,6.0,16.0,65,0.00,,,0.00,673.000000,,2013-05-04 20:21:00,
2013-05-04 10:32:00,67.0,55.0,-100.00,North,0,6.0,16.0,65,0.00,,,0.00,673.000000,,2013-05-04 20:32:00,
2013-05-04 10:42:00,67.0,55.0,-100.00,North,0,6.0,16.0,65,0.00,,,0.00,673.000000,,2013-05-04 20:42:00,
2013-05-04 10:51:00,67.0,55.0,-100.00,North,0,6.0,16.0,65,0.00,,,0.00,673.000000,,2013-05-04 20:51:00,
2013-05-04 11:22:00,66.0,53.0,-100.00,NNW,333,6.0,15.0,63,0.00,,,0.00,762.000000,,2013-05-04 21:22:00,
2013-05-04 11:33:00,66.0,53.0,-100.00,NNW,333,6.0,15.0,63,0.00,,,0.00,762.000000,,2013-05-04 21:33:00,
2013-05-04 11:43:00,66.0,53.0,-100.00,NNW,333,6.0,15.0,63,0.00,,,0.00,762.000000,,2013-05-04 21:43:00,
2013-05-04 11:52:00,66.0,53.0,-100.00,NNW,333,6.0,15.0,63,0.00,,,0.00,762.000000,,2013-05-04 21:52:00,
2013-05-04 12:22:00,68.0,54.0,-100.00,NNW,341,9.0,17.0,62,0.00,,,0.00,801.000000,,2013-05-04 22:22:00,
2013-05-04 12:32:00,68.0,54.0,-100.00,NNW,341,9.0,17.0,62,0.00,,,0.00,801.000000,,2013-05-04 22:32:00,
2013-05-04 12:42:00,68.0,54.0,-100.00,NNW,341,9.0,17.0,62,0.00,,,0.00,801.000000,,2013-05-04 22:42:00,
2013-05-04 12:52:00,68.0,54.0,-100.00,NNW,341,9.0,17.0,62,0.00,,,0.00,801.000000,,2013-05-04 22:52:00,
2013-05-04 13:21:00,68.0,53.0,-100.00,North,358,8.0,17.0,59,0.00,,,-99.99,1018.000000,,2013-05-04 23:21:00,
2013-05-04 13:32:00,68.0,53.0,-100.00,North,358,8.0,17.0,59,0.00,,,-99.99,1018.000000,,2013-05-04 23:32:00,
2013-05-04 13:42:00,68.0,53.0,-100.00,North,358,8.0,17.0,59,0.00,,,-99.99,1018.000000,,2013-05-04 23:42:00,
2013-05-04 13:52:00,68.0,53.0,-100.00,North,358,8.0,17.0,59,0.00,,,-99.99,1018.000000,,2013-05-04 23:52:00,
2013-05-04 14:21:00,66.0,53.0,-100.00,North,352,10.0,20.0,63,0.00,,,0.00,778.000000,,2013-05-05 00:21:00,
2013-05-04 14:31:00,66.0,53.0,-100.00,North,352,10.0,20.0,63,0.00,,,0.00,778.000000,,2013-05-05 00:31:00,
2013-05-04 14:42:00,66.0,53.0,-100.00,North,352,10.0,20.0,63,0.00,,,0.00,778.000000,,2013-05-05 00:42:00,
2013-05-04 14:51:00,66.0,53.0,-100.00,North,352,10.0,20.0,63,0.00,,,0.00,778.000000,,2013-05-05 00:51:00,
2013-05-04 15:21:00,63.0,54.0,-100.00,North,1,7.0,19.0,73,0.00,,,0.00,619.000000,,2013-05-05 01:21:00,
2013-05-04 15:32:00,63.0,54.0,-100.00,North,1,7.0,19.0,73,0.00,,,0.00,619.000000,,2013-05-05 01:32:00,
2013-05-04 15:42:00,63.0,54.0,-100.00,North,1,7.0,19.0,73,0.00,,,0.00,619.000000,,2013-05-05 01:42:00,
2013-05-04 15:52:00,63.0,54.0,-100.00,North,1,7.0,19.0,73,0.00,,,0.00,619.000000,,2013-05-05 01:52:00,
2013-05-04 16:21:00,66.0,53.0,-100.00,NW,315,9.0,19.0,63,0.00,,,0.00,632.000000,,2013-05-05 02:21:00,
2013-05-04 16:31:00,66.0,53.0,-100.00,NW,315,9.0,19.0,63,0.00,,,0.00,632.000000,,2013-05-05 02:31:00,
2013-05-04 16:42:00,66.0,53.0,-100.00,NW,315,9.0,19.0,63,0.00,,,0.00,632.000000,,2013-05-05 02:42:00,
2013-05-04 16:52:00,66.0,53.0,-100.00,NW,315,9.0,19.0,63,0.00,,,0.00,632.000000,,2013-05-05 02:52:00,
2013-05-04 17:21:00,63.0,55.0,-100.00,North,7,6.0,17.0,74,0.00,,,0.00,237.000000,,2013-05-05 03:21:00,
2013-05-04 17:32:00,63.0,55.0,-100.00,North,7,6.0,17.0,74,0.00,,,0.00,237.000000,,2013-05-05 03:32:00,
2013-05-04 17:42:00,63.0,55.0,-100.00,North,7,6.0,17.0,74,0.00,,,0.00,237.000000,,2013-05-05 03:42:00,
2013-05-04 17:52:00,63.0,55.0,-100.00,North,7,6.0,17.0,74,0.00,,,0.00,237.000000,,2013-05-05 03:52:00,
2013-05-04 18:22:00,59.0,52.0,-100.00,NNW,344,6.0,13.0,77,0.00,,,0.00,196.000000,,2013-05-05 04:22:00,
2013-05-04 18:32:00,59.0,52.0,-100.00,NNW,344,6.0,13.0,77,0.00,,,0.00,196.000000,,2013-05-05 04:32:00,
2013-05-04 18:43:00,59.0,52.0,-100.00,NNW,344,6.0,13.0,77,0.00,,,0.00,196.000000,,2013-05-05 04:43:00,
2013-05-04 18:52:00,59.0,52.0,-100.00,NNW,344,6.0,13.0,77,0.00,,,0.00,196.000000,,2013-05-05 04:52:00,
2013-05-04 19:21:00,57.0,52.0,-100.00,NNE,20,4.0,11.0,83,0.00,,,0.00,31.000000,,2013-05-05 05:21:00,
2013-05-04 19:31:00,57.0,52.0,-100.00,NNE,20,4.0,11.0,83,0.00,,,0.00,31.000000,,2013-05-05 05:31:00,
2013-05-04 19:42:00,57.0,52.0,-100.00,NNE,20,4.0,11.0,83,0.00,,,0.00,31.000000,,2013-05-05 05:42:00,
2013-05-04 19:51:00,57.0,52.0,-100.00,NNE,20,4.0,11.0,83,0.00,,,0.00,31.000000,,2013-05-05 05:51:00,
2013-05-04 20:21:00,58.0,54.0,-100.00,NNW,344,3.0,9.0,86,0.00,,,0.00,0.000000,,2013-05-05 06:21:00,
2013-05-04 20:32:00,58.0,54.0,-100.00,NNW,344,3.0,9.0,86,0.00,,,0.00,0.000000,,2013-05-05 06:32:00,
2013-05-04 20:42:00,58.0,54.0,-100.00,NNW,344,3.0,9.0,86,0.00,,,0.00,0.000000,,2013-05-05 06:42:00,
2013-05-04 20:51:00,58.0,54.0,-100.00,NNW,344,3.0,9.0,86,0.00,,,0.00,0.000000,,2013-05-05 06:51:00,
2013-05-04 21:21:00,55.0,53.0,-100.00,East,98,3.0,10.0,92,0.00,,,0.00,0.000000,,2013-05-05 07:21:00,
2013-05-04 21:32:00,55.0,53.0,-100.00,East,98,3.0,10.0,92,0.00,,,0.00,0.000000,,2013-05-05 07:32:00,
2013-05-04 21:42:00,55.0,53.0,-100.00,East,98,3.0,10.0,92,0.00,,,0.00,0.000000,,2013-05-05 07:42:00,
2013-05-04 21:52:00,55.0,53.0,-100.00,East,98,3.0,10.0,92,0.00,,,0.00,0.000000,,2013-05-05 07:52:00,
2013-05-04 22:21:00,50.0,48.0,-100.00,SE,137,5.0,6.0,93,0.00,,,0.00,0.000000,,2013-05-05 08:21:00,
2013-05-04 22:31:00,50.0,48.0,-100.00,SE,137,5.0,6.0,93,0.00,,,0.00,0.000000,,2013-05-05 08:31:00,
2013-05-04 22:42:00,50.0,48.0,-100.00,SE,137,5.0,6.0,93,0.00,,,0.00,0.000000,,2013-05-05 08:42:00,
2013-05-04 22:52:00,50.0,48.0,-100.00,SE,137,5.0,6.0,93,0.00,,,0.00,0.000000,,2013-05-05 08:52:00,
2013-05-04 23:21:00,49.0,48.0,-100.00,East,79,2.0,5.0,98,0.00,,,0.00,0.000000,,2013-05-05 09:21:00,
2013-05-04 23:32:00,49.0,48.0,-100.00,East,79,2.0,5.0,98,0.00,,,0.00,0.000000,,2013-05-05 09:32:00,
2013-05-04 23:42:00,49.0,48.0,-100.00,East,79,2.0,5.0,98,0.00,,,0.00,0.000000,,2013-05-05 09:42:00,
2013-05-04 23:52:00,49.0,48.0,-100.00,East,79,2.0,5.0,98,0.00,,,0.00,0.000000,,2013-05-05 09:52:00,